Time;durP1;ratioP1;P1;durP2;ratioP2;P2;SDS_P1;SDS_P2;PMS_P1;PMS_P2;Temp;Humidity;BMP_temperature;BMP_pressure;BME280_temperature;BME280_humidity;BME280_pressure;Samples;Min_cycle;Max_cycle;Signal;HPM_P1;HPM_P2
2022/01/04 00:01:00;;;;;;;3.17;1.90;;;;;;;;;;5054346;28;20036;-77
2022/01/04 00:03:25;;;;;;;4.28;2.22;;;;;;;;;;5059074;28;20091;-77
2022/01/04 00:05:50;;;;;;;3.22;1.95;;;;;;;;;;5056392;28;20033;-77
2022/01/04 00:08:16;;;;;;;4.53;2.00;;;;;;;;;;5061797;28;20085;-77
2022/01/04 00:10:41;;;;;;;3.28;2.20;;;;;;;;;;5040415;28;20033;-77
2022/01/04 00:13:25;;;;;;;4.75;2.47;;;;;;;;;;5048107;28;20103;-77
2022/01/04 00:15:55;;;;;;;3.42;2.30;;;;;;;;;;5025127;28;20041;-77
2022/01/04 00:18:21;;;;;;;3.95;2.50;;;;;;;;;;5042537;28;20457;-77
2022/01/04 00:20:47;;;;;;;3.55;2.35;;;;;;;;;;5016092;28;20505;-77
2022/01/04 00:23:14;;;;;;;6.53;2.63;;;;;;;;;;5040683;28;20042;-77
2022/01/04 00:25:39;;;;;;;5.43;3.00;;;;;;;;;;5045560;28;20029;-77
2022/01/04 00:28:08;;;;;;;4.15;2.65;;;;;;;;;;5035484;28;20040;-77
2022/01/04 00:30:38;;;;;;;4.85;2.75;;;;;;;;;;5030926;28;20040;-77
2022/01/04 00:33:06;;;;;;;7.28;2.78;;;;;;;;;;5051369;28;20060;-76
2022/01/04 00:35:32;;;;;;;4.20;2.15;;;;;;;;;;5041452;28;20029;-77
2022/01/04 00:37:58;;;;;;;4.45;2.78;;;;;;;;;;5056790;28;20056;-76
2022/01/04 00:40:24;;;;;;;3.78;2.50;;;;;;;;;;5059212;28;20099;-76
2022/01/04 00:42:51;;;;;;;5.18;2.60;;;;;;;;;;5057987;28;20044;-77
2022/01/04 00:45:16;;;;;;;5.40;2.60;;;;;;;;;;5063258;28;20669;-76
2022/01/04 00:50:20;;;;;;;6.38;2.60;;;;;;;;;;5058219;28;20037;-77
2022/01/04 00:52:46;;;;;;;5.75;2.78;;;;;;;;;;5057370;28;20033;-76
2022/01/04 00:55:11;;;;;;;5.95;2.95;;;;;;;;;;5040315;28;20037;-77
2022/01/04 00:57:36;;;;;;;5.15;2.65;;;;;;;;;;5046331;28;20116;-77
2022/01/04 01:00:06;;;;;;;4.82;2.85;;;;;;;;;;5054432;28;20033;-76
2022/01/04 01:02:32;;;;;;;4.47;2.80;;;;;;;;;;5016949;28;20061;-77
2022/01/04 01:04:57;;;;;;;4.28;2.90;;;;;;;;;;5033320;28;20025;-76
2022/01/04 01:07:22;;;;;;;7.13;2.95;;;;;;;;;;5031911;28;20095;-76
2022/01/04 01:10:06;;;;;;;7.15;2.75;;;;;;;;;;5011147;28;20126;-77
2022/01/04 01:12:31;;;;;;;3.78;2.63;;;;;;;;;;5031154;28;20029;-76
2022/01/04 01:14:57;;;;;;;6.32;2.72;;;;;;;;;;5038991;28;20028;-77
2022/01/04 01:17:22;;;;;;;4.22;2.58;;;;;;;;;;5035685;28;20040;-77
2022/01/04 01:19:47;;;;;;;5.35;2.78;;;;;;;;;;5035886;28;21397;-77
2022/01/04 01:22:13;;;;;;;4.07;2.60;;;;;;;;;;5033109;28;20033;-77
2022/01/04 01:24:38;;;;;;;6.38;2.63;;;;;;;;;;5017001;28;20036;-76
2022/01/04 01:27:04;;;;;;;4.82;2.88;;;;;;;;;;5038497;28;20411;-77
2022/01/04 01:29:29;;;;;;;4.75;2.85;;;;;;;;;;5034263;28;20076;-77
2022/01/04 01:31:55;;;;;;;4.88;2.90;;;;;;;;;;5032821;28;20124;-77
2022/01/04 01:34:20;;;;;;;6.95;3.22;;;;;;;;;;5037171;28;20041;-76
2022/01/04 01:36:45;;;;;;;6.60;2.90;;;;;;;;;;5018350;28;20040;-77
2022/01/04 01:39:12;;;;;;;6.35;3.33;;;;;;;;;;5043554;28;20029;-77
2022/01/04 01:41:38;;;;;;;7.95;3.45;;;;;;;;;;5035793;28;20044;-76
2022/01/04 01:44:03;;;;;;;4.90;2.97;;;;;;;;;;5046811;28;20104;-77
2022/01/04 01:46:29;;;;;;;6.35;3.30;;;;;;;;;;5037545;28;20071;-77
2022/01/04 01:48:54;;;;;;;7.65;3.15;;;;;;;;;;5033263;28;20132;-76
2022/01/04 01:51:20;;;;;;;4.75;2.85;;;;;;;;;;5034872;28;20041;-76
2022/01/04 01:53:46;;;;;;;5.55;2.72;;;;;;;;;;5040704;28;20033;-76
2022/01/04 01:56:11;;;;;;;5.13;2.92;;;;;;;;;;5045672;28;20764;-77
2022/01/04 01:58:36;;;;;;;4.07;2.03;;;;;;;;;;5049008;28;20025;-77
2022/01/04 02:01:02;;;;;;;3.85;2.30;;;;;;;;;;5046893;28;20025;-77
2022/01/04 02:03:27;;;;;;;4.45;2.47;;;;;;;;;;5048217;28;20059;-76
2022/01/04 02:05:53;;;;;;;4.53;2.38;;;;;;;;;;5054040;28;20088;-76
2022/01/04 02:08:19;;;;;;;2.38;1.73;;;;;;;;;;5060280;28;20086;-77
2022/01/04 02:10:45;;;;;;;3.17;2.08;;;;;;;;;;5046952;28;20117;-77
2022/01/04 02:13:11;;;;;;;4.30;2.33;;;;;;;;;;5061422;28;20045;-76
2022/01/04 02:15:37;;;;;;;5.60;1.95;;;;;;;;;;5054766;28;20494;-76
2022/01/04 02:18:02;;;;;;;4.30;1.13;;;;;;;;;;5060123;28;20041;-76
2022/01/04 02:20:28;;;;;;;6.78;2.05;;;;;;;;;;5059325;28;20029;-77
2022/01/04 02:22:55;;;;;;;3.72;2.22;;;;;;;;;;5058725;28;20110;-76
2022/01/04 02:25:21;;;;;;;4.03;2.58;;;;;;;;;;5060730;28;20036;-76
2022/01/04 02:27:46;;;;;;;4.60;2.60;;;;;;;;;;5056236;28;20594;-76
2022/01/04 02:30:14;;;;;;;6.07;3.00;;;;;;;;;;5062055;28;20131;-76
2022/01/04 02:32:41;;;;;;;4.88;2.60;;;;;;;;;;5064891;28;20199;-76
2022/01/04 02:35:07;;;;;;;4.40;2.00;;;;;;;;;;5053094;28;20017;-77
2022/01/04 02:37:33;;;;;;;3.05;2.08;;;;;;;;;;5052267;28;20108;-76
2022/01/04 02:39:58;;;;;;;4.47;2.55;;;;;;;;;;5061541;28;20120;-76
2022/01/04 02:42:24;;;;;;;3.83;1.88;;;;;;;;;;5064280;28;20036;-77
2022/01/04 02:44:49;;;;;;;3.17;2.28;;;;;;;;;;5061728;28;20036;-76
2022/01/04 02:47:16;;;;;;;5.97;2.40;;;;;;;;;;5074244;28;20417;-77
2022/01/04 02:49:42;;;;;;;4.97;2.17;;;;;;;;;;5064777;28;20075;-77
2022/01/04 02:52:08;;;;;;;5.00;2.70;;;;;;;;;;5057763;28;20025;-77
2022/01/04 02:54:34;;;;;;;4.30;2.50;;;;;;;;;;5059242;28;20036;-76
2022/01/04 02:56:59;;;;;;;5.93;3.50;;;;;;;;;;5059840;28;20036;-77
2022/01/04 02:59:25;;;;;;;8.13;3.40;;;;;;;;;;5061040;28;20520;-77
2022/01/04 03:01:50;;;;;;;6.97;3.35;;;;;;;;;;5060394;28;20031;-76
2022/01/04 03:04:15;;;;;;;6.30;3.40;;;;;;;;;;5060522;28;20029;-76
2022/01/04 03:06:41;;;;;;;6.65;4.00;;;;;;;;;;5046283;28;20033;-76
2022/01/04 03:09:07;;;;;;;7.75;3.25;;;;;;;;;;5038981;28;20040;-76
2022/01/04 03:11:33;;;;;;;7.45;3.90;;;;;;;;;;5039350;28;20030;-76
2022/01/04 03:13:59;;;;;;;9.05;3.85;;;;;;;;;;5030994;28;20045;-76
2022/01/04 03:16:25;;;;;;;10.05;4.00;;;;;;;;;;5044224;28;20478;-76
2022/01/04 03:21:45;;;;;;;8.60;4.35;;;;;;;;;;5026815;28;20049;-76
2022/01/04 03:24:13;;;;;;;5.80;3.85;;;;;;;;;;5039296;28;20043;-76
2022/01/04 03:26:39;;;;;;;4.88;3.10;;;;;;;;;;5052841;28;20034;-76
2022/01/04 03:29:06;;;;;;;4.43;2.60;;;;;;;;;;5062546;28;20081;-76
2022/01/04 03:31:32;;;;;;;4.70;2.20;;;;;;;;;;5050201;28;20029;-76
2022/01/04 03:33:58;;;;;;;4.32;2.10;;;;;;;;;;5049368;28;20418;-76
2022/01/04 03:36:24;;;;;;;5.05;2.17;;;;;;;;;;5057588;28;20521;-76
2022/01/04 03:38:54;;;;;;;3.65;2.28;;;;;;;;;;5057749;28;20060;-76
2022/01/04 03:41:21;;;;;;;2.90;1.88;;;;;;;;;;5058086;28;20033;-76
2022/01/04 03:43:47;;;;;;;3.70;1.83;;;;;;;;;;5058878;28;20025;-76
2022/01/04 03:46:12;;;;;;;3.10;1.75;;;;;;;;;;5060573;28;20040;-76
2022/01/04 03:48:38;;;;;;;4.75;2.22;;;;;;;;;;5059928;28;20045;-76
2022/01/04 03:51:04;;;;;;;3.85;2.10;;;;;;;;;;5042497;28;20037;-76
2022/01/04 03:53:29;;;;;;;5.25;2.30;;;;;;;;;;5027299;28;20057;-76
2022/01/04 03:55:55;;;;;;;4.70;2.10;;;;;;;;;;5038261;28;20733;-76
2022/01/04 03:58:20;;;;;;;4.38;2.08;;;;;;;;;;5043175;28;20029;-76
2022/01/04 04:00:46;;;;;;;4.88;2.22;;;;;;;;;;5019995;28;20045;-76
2022/01/04 04:03:11;;;;;;;5.88;2.10;;;;;;;;;;5037656;28;20095;-77
2022/01/04 04:05:37;;;;;;;3.47;2.08;;;;;;;;;;5037476;28;20490;-76
2022/01/04 04:08:02;;;;;;;5.18;2.10;;;;;;;;;;5024212;28;20031;-76
2022/01/04 04:10:27;;;;;;;3.95;2.25;;;;;;;;;;5020799;28;20028;-76
2022/01/04 04:12:53;;;;;;;6.30;2.60;;;;;;;;;;5037235;28;20032;-76
2022/01/04 04:15:18;;;;;;;5.30;2.60;;;;;;;;;;5037347;28;20419;-76
2022/01/04 04:17:47;;;;;;;4.38;2.50;;;;;;;;;;5039346;28;20405;-76
2022/01/04 04:20:12;;;;;;;4.72;3.03;;;;;;;;;;5040081;28;20507;-76
2022/01/04 04:22:38;;;;;;;6.20;3.42;;;;;;;;;;5029494;28;20036;-76
2022/01/04 04:25:04;;;;;;;8.15;3.13;;;;;;;;;;5030112;28;20047;-76
2022/01/04 04:27:29;;;;;;;6.50;3.17;;;;;;;;;;5040729;28;20036;-76
2022/01/04 04:29:55;;;;;;;5.95;3.25;;;;;;;;;;5036901;28;20120;-76
2022/01/04 04:32:20;;;;;;;8.57;3.13;;;;;;;;;;5039891;28;20029;-76
2022/01/04 04:34:45;;;;;;;6.97;3.40;;;;;;;;;;5026066;28;20009;-76
2022/01/04 04:37:11;;;;;;;4.07;2.13;;;;;;;;;;5038935;28;20430;-76
2022/01/04 04:39:36;;;;;;;3.85;2.38;;;;;;;;;;5040251;28;20148;-76
2022/01/04 04:42:01;;;;;;;4.20;2.35;;;;;;;;;;5039867;28;20105;-76
2022/01/04 04:44:27;;;;;;;4.10;2.15;;;;;;;;;;5041498;28;20119;-76
2022/01/04 04:46:52;;;;;;;4.10;2.38;;;;;;;;;;5028843;28;20048;-76
2022/01/04 04:49:17;;;;;;;4.47;2.30;;;;;;;;;;5039371;28;20510;-76
2022/01/04 04:51:43;;;;;;;8.55;2.78;;;;;;;;;;5023846;28;20558;-77
2022/01/04 04:54:08;;;;;;;4.30;2.42;;;;;;;;;;5035394;28;20458;-76
2022/01/04 04:56:38;;;;;;;4.03;2.33;;;;;;;;;;5037366;28;20036;-76
2022/01/04 04:59:03;;;;;;;4.13;2.60;;;;;;;;;;5027212;28;20035;-76
2022/01/04 05:01:29;;;;;;;3.75;2.28;;;;;;;;;;5043254;28;20021;-76
2022/01/04 05:03:54;;;;;;;3.92;2.50;;;;;;;;;;5039612;28;20067;-76
2022/01/04 05:06:19;;;;;;;4.47;2.65;;;;;;;;;;5042283;28;20076;-76
2022/01/04 05:08:45;;;;;;;4.18;2.53;;;;;;;;;;5041645;28;20033;-76
2022/01/04 05:11:10;;;;;;;5.20;2.83;;;;;;;;;;5042367;28;20035;-76
2022/01/04 05:13:35;;;;;;;5.82;2.45;;;;;;;;;;5042571;28;20100;-76
2022/01/04 05:16:01;;;;;;;3.85;2.28;;;;;;;;;;5032562;28;20035;-76
2022/01/04 05:18:26;;;;;;;4.70;2.10;;;;;;;;;;5045359;28;20599;-76
2022/01/04 05:20:51;;;;;;;5.97;2.50;;;;;;;;;;5032103;28;20142;-76
2022/01/04 05:23:17;;;;;;;5.68;2.35;;;;;;;;;;5044396;28;20047;-76
2022/01/04 05:25:42;;;;;;;6.10;2.33;;;;;;;;;;5043013;28;20116;-76
2022/01/04 05:28:07;;;;;;;4.25;2.47;;;;;;;;;;5042792;28;20029;-76
2022/01/04 05:30:33;;;;;;;4.82;2.20;;;;;;;;;;5042205;28;20033;-76
2022/01/04 05:32:58;;;;;;;4.90;2.70;;;;;;;;;;5038318;28;20036;-76
2022/01/04 05:35:23;;;;;;;4.60;2.22;;;;;;;;;;5040158;28;20457;-76
2022/01/04 05:37:49;;;;;;;4.93;2.47;;;;;;;;;;5038818;28;20021;-76
2022/01/04 05:40:14;;;;;;;5.50;2.70;;;;;;;;;;5039226;28;20513;-76
2022/01/04 05:42:39;;;;;;;6.00;2.75;;;;;;;;;;5042513;28;20040;-76
2022/01/04 05:45:05;;;;;;;4.68;2.80;;;;;;;;;;5047968;28;20033;-76
2022/01/04 05:47:31;;;;;;;5.68;2.70;;;;;;;;;;5040028;28;20037;-76
2022/01/04 05:49:57;;;;;;;4.78;2.55;;;;;;;;;;5002360;28;20156;-76
2022/01/04 05:52:22;;;;;;;4.97;2.67;;;;;;;;;;5052889;28;20379;-76
2022/01/04 05:54:49;;;;;;;6.43;3.80;;;;;;;;;;5062376;28;20060;-76
2022/01/04 05:57:16;;;;;;;4.82;2.22;;;;;;;;;;5052119;28;20572;-76
2022/01/04 05:59:41;;;;;;;5.30;2.47;;;;;;;;;;5065392;28;20060;-76
2022/01/04 06:02:07;;;;;;;6.13;2.55;;;;;;;;;;5065507;28;20163;-76
2022/01/04 06:04:32;;;;;;;8.02;3.50;;;;;;;;;;5061024;28;20025;-76
2022/01/04 06:06:57;;;;;;;7.28;2.78;;;;;;;;;;5059851;28;20171;-76
2022/01/04 06:09:27;;;;;;;4.90;2.83;;;;;;;;;;5068265;28;20064;-76
2022/01/04 06:17:04;;;;;;;5.90;2.70;;;;;;;;;;5059661;28;20036;-76
2022/01/04 06:19:29;;;;;;;6.43;2.80;;;;;;;;;;5060166;28;20013;-76
2022/01/04 06:21:56;;;;;;;6.72;2.67;;;;;;;;;;5061852;28;20037;-76
2022/01/04 06:24:21;;;;;;;7.93;3.35;;;;;;;;;;5059866;28;20083;-76
2022/01/04 06:26:48;;;;;;;5.38;2.70;;;;;;;;;;5057080;28;20414;-76
2022/01/04 06:29:14;;;;;;;5.45;2.78;;;;;;;;;;5058845;28;20566;-76
2022/01/04 06:31:40;;;;;;;8.63;3.00;;;;;;;;;;5060061;28;20031;-76
2022/01/04 06:34:06;;;;;;;7.93;3.55;;;;;;;;;;5065010;28;20040;-76
2022/01/04 06:36:31;;;;;;;7.15;3.35;;;;;;;;;;5065654;28;20506;-76
2022/01/04 06:38:56;;;;;;;7.53;3.60;;;;;;;;;;5057304;28;20044;-75
2022/01/04 06:41:22;;;;;;;7.55;3.92;;;;;;;;;;5044287;28;20064;-75
2022/01/04 06:43:47;;;;;;;8.77;3.95;;;;;;;;;;5056293;28;20044;-76
2022/01/04 06:46:13;;;;;;;8.05;3.90;;;;;;;;;;5040538;28;20549;-75
2022/01/04 06:48:40;;;;;;;8.93;4.32;;;;;;;;;;5031794;28;20432;-75
2022/01/04 06:51:06;;;;;;;9.57;4.53;;;;;;;;;;5024875;28;20087;-75
2022/01/04 06:53:32;;;;;;;13.70;4.80;;;;;;;;;;5026847;28;20108;-75
2022/01/04 06:55:57;;;;;;;12.48;5.05;;;;;;;;;;5034327;28;20038;-75
2022/01/04 06:58:22;;;;;;;11.27;5.05;;;;;;;;;;5032269;28;20028;-79
2022/01/04 07:00:48;;;;;;;9.32;4.90;;;;;;;;;;5036402;28;20032;-82
2022/01/04 07:03:13;;;;;;;11.32;4.75;;;;;;;;;;5037432;28;20511;-83
2022/01/04 07:05:38;;;;;;;13.90;5.90;;;;;;;;;;5038728;28;20041;-79
2022/01/04 07:08:04;;;;;;;14.10;5.22;;;;;;;;;;5041640;28;20033;-77
2022/01/04 07:10:30;;;;;;;13.20;5.90;;;;;;;;;;5035162;28;20029;-75
2022/01/04 07:12:55;;;;;;;14.38;6.03;;;;;;;;;;5044366;28;20041;-75
2022/01/04 07:15:21;;;;;;;13.40;6.35;;;;;;;;;;5031895;28;20033;-73
2022/01/04 07:17:46;;;;;;;19.75;7.47;;;;;;;;;;5039142;28;20029;-73
2022/01/04 07:20:12;;;;;;;17.05;7.13;;;;;;;;;;5036173;28;20509;-73
2022/01/04 07:22:37;;;;;;;15.70;6.97;;;;;;;;;;5037467;28;20542;-73
2022/01/04 07:25:04;;;;;;;21.17;9.50;;;;;;;;;;5036315;28;20524;-73
2022/01/04 07:27:29;;;;;;;15.95;7.57;;;;;;;;;;5039189;28;20033;-73
2022/01/04 07:29:54;;;;;;;21.17;7.97;;;;;;;;;;5036562;28;20032;-73
2022/01/04 07:32:20;;;;;;;23.63;9.70;;;;;;;;;;5035321;28;20037;-73
2022/01/04 07:34:45;;;;;;;24.27;10.27;;;;;;;;;;5045584;28;20505;-73
2022/01/04 07:37:10;;;;;;;24.00;9.38;;;;;;;;;;5043129;28;20135;-73
2022/01/04 07:39:36;;;;;;;24.48;9.32;;;;;;;;;;5038036;28;20039;-73
2022/01/04 07:42:02;;;;;;;24.58;8.88;;;;;;;;;;5036802;28;20055;-73
2022/01/04 07:44:28;;;;;;;30.13;11.18;;;;;;;;;;5039503;28;20107;-73
2022/01/04 07:46:53;;;;;;;33.22;11.90;;;;;;;;;;5038021;28;20453;-73
2022/01/04 07:49:19;;;;;;;34.15;10.88;;;;;;;;;;5040687;28;20045;-73
2022/01/04 07:51:44;;;;;;;31.52;11.27;;;;;;;;;;5059423;28;20048;-73
2022/01/04 07:54:10;;;;;;;33.40;13.18;;;;;;;;;;5038172;28;20067;-73
2022/01/04 07:56:35;;;;;;;31.40;12.38;;;;;;;;;;5058487;28;20080;-79
2022/01/04 07:59:01;;;;;;;34.63;11.93;;;;;;;;;;5052018;28;20058;-84
2022/01/04 08:01:30;;;;;;;31.60;12.35;;;;;;;;;;5054559;28;20024;-80
2022/01/04 08:03:55;;;;;;;26.63;9.93;;;;;;;;;;5041883;28;20040;-74
2022/01/04 08:06:21;;;;;;;26.73;10.15;;;;;;;;;;5052651;28;20398;-73
2022/01/04 08:08:46;;;;;;;30.42;10.10;;;;;;;;;;5058975;28;20036;-79
2022/01/04 08:11:11;;;;;;;26.10;9.05;;;;;;;;;;5038675;28;20036;-77
2022/01/04 08:13:37;;;;;;;27.17;8.77;;;;;;;;;;5059837;28;20367;-77
2022/01/04 08:16:02;;;;;;;28.08;10.35;;;;;;;;;;5053995;28;20341;-75
2022/01/04 08:18:28;;;;;;;37.95;14.05;;;;;;;;;;5057090;28;20036;-76
2022/01/04 08:20:57;;;;;;;28.58;11.13;;;;;;;;;;5057952;28;20175;-75
2022/01/04 08:23:24;;;;;;;24.20;9.05;;;;;;;;;;5062424;28;20051;-75
2022/01/04 08:25:49;;;;;;;25.10;9.38;;;;;;;;;;5056435;28;20516;-75
2022/01/04 08:28:15;;;;;;;21.35;9.30;;;;;;;;;;5063724;28;20037;-76
2022/01/04 08:30:42;;;;;;;16.23;6.65;;;;;;;;;;5051739;28;20116;-76
2022/01/04 08:33:07;;;;;;;16.15;7.18;;;;;;;;;;5055190;28;20044;-75
2022/01/04 08:35:33;;;;;;;20.70;6.72;;;;;;;;;;5046763;28;20465;-76
2022/01/04 08:37:58;;;;;;;22.02;8.05;;;;;;;;;;5032829;28;20036;-76
2022/01/04 08:40:23;;;;;;;19.00;6.60;;;;;;;;;;5027359;28;20079;-75
2022/01/04 08:42:49;;;;;;;15.27;6.13;;;;;;;;;;5026339;28;20091;-76
2022/01/04 08:45:15;;;;;;;15.48;6.35;;;;;;;;;;5036437;28;20059;-75
2022/01/04 08:47:40;;;;;;;22.35;7.55;;;;;;;;;;5034763;28;20041;-77
2022/01/04 08:50:09;;;;;;;15.65;6.45;;;;;;;;;;5031629;28;20142;-74
2022/01/04 08:52:35;;;;;;;13.88;6.35;;;;;;;;;;5018146;28;20055;-73
2022/01/04 08:55:01;;;;;;;17.42;6.57;;;;;;;;;;5016270;28;20043;-74
2022/01/04 08:57:26;;;;;;;14.13;6.53;;;;;;;;;;5010915;28;20072;-74
2022/01/04 08:59:54;;;;;;;13.38;5.60;;;;;;;;;;5008673;28;20041;-74
2022/01/04 09:02:20;;;;;;;15.57;5.90;;;;;;;;;;5020991;28;20115;-76
2022/01/04 09:04:45;;;;;;;12.15;5.40;;;;;;;;;;5004892;28;20437;-76
2022/01/04 09:07:11;;;;;;;14.65;5.78;;;;;;;;;;5033051;28;20087;-76
2022/01/04 09:09:36;;;;;;;14.23;5.43;;;;;;;;;;5022176;28;20037;-75
2022/01/04 09:12:02;;;;;;;13.95;5.53;;;;;;;;;;5017914;28;20113;-76
2022/01/04 09:14:42;;;;;;;12.38;5.53;;;;;;;;;;4995590;28;20038;-76
2022/01/04 09:19:53;;;;;;;15.20;6.03;;;;;;;;;;5013393;28;20119;-74
2022/01/04 09:22:18;;;;;;;11.65;4.78;;;;;;;;;;5002412;28;20669;-75
2022/01/04 09:24:43;;;;;;;9.93;4.38;;;;;;;;;;5009403;28;20069;-72
2022/01/04 09:27:10;;;;;;;9.68;4.18;;;;;;;;;;5016404;28;20429;-74
2022/01/04 09:29:35;;;;;;;10.35;4.65;;;;;;;;;;5017730;28;20033;-72
2022/01/04 09:32:02;;;;;;;14.07;4.50;;;;;;;;;;5007147;28;20881;-73
2022/01/04 09:34:28;;;;;;;8.30;4.18;;;;;;;;;;5035582;28;20070;-79
2022/01/04 09:36:53;;;;;;;11.35;4.90;;;;;;;;;;5036459;28;20033;-74
2022/01/04 09:39:22;;;;;;;10.90;4.50;;;;;;;;;;5043460;28;20414;-73
2022/01/04 09:41:49;;;;;;;6.35;3.35;;;;;;;;;;5043579;28;20109;-73
2022/01/04 09:44:15;;;;;;;10.00;3.63;;;;;;;;;;5029473;28;20036;-73
2022/01/04 09:46:41;;;;;;;8.65;3.55;;;;;;;;;;5031280;28;20021;-74
2022/01/04 09:49:09;;;;;;;10.20;3.92;;;;;;;;;;5041184;28;20040;-77
2022/01/04 09:51:36;;;;;;;10.73;4.32;;;;;;;;;;5056289;28;20124;-77
2022/01/04 09:54:02;;;;;;;9.95;4.15;;;;;;;;;;5048761;28;20037;-76
2022/01/04 09:56:27;;;;;;;10.32;3.92;;;;;;;;;;5057895;28;20472;-77
2022/01/04 09:58:53;;;;;;;7.40;3.80;;;;;;;;;;5058862;28;20035;-77
2022/01/04 10:01:19;;;;;;;6.85;3.53;;;;;;;;;;5059354;28;20047;-76
2022/01/04 10:03:44;;;;;;;9.20;3.80;;;;;;;;;;5058897;28;20049;-76
2022/01/04 10:06:16;;;;;;;9.13;4.00;;;;;;;;;;5058367;28;20040;-76
2022/01/04 10:09:12;;;;;;;10.98;5.10;;;;;;;;;;5060666;28;20044;-77
2022/01/04 10:11:43;;;;;;;10.35;4.70;;;;;;;;;;5047557;28;20057;-73
2022/01/04 10:14:35;;;;;;;12.32;5.03;;;;;;;;;;5035309;28;20055;-77
2022/01/04 10:17:07;;;;;;;7.45;4.38;;;;;;;;;;5030771;28;20125;-76
2022/01/04 10:19:36;;;;;;;11.70;5.47;;;;;;;;;;5028016;28;20036;-76
2022/01/04 10:22:17;;;;;;;10.75;4.93;;;;;;;;;;5033360;28;20033;-76
2022/01/04 10:24:44;;;;;;;11.90;5.55;;;;;;;;;;5039705;28;20046;-77
2022/01/04 10:27:26;;;;;;;11.30;5.85;;;;;;;;;;5037089;28;20043;-75
2022/01/04 10:30:17;;;;;;;11.02;5.20;;;;;;;;;;5040494;28;20422;-75
2022/01/04 10:33:01;;;;;;;9.45;4.15;;;;;;;;;;5063219;28;20036;-79
2022/01/04 10:35:38;;;;;;;10.38;5.50;;;;;;;;;;5046298;28;20399;-77
2022/01/04 10:38:30;;;;;;;9.35;4.97;;;;;;;;;;5046660;28;20056;-78
2022/01/04 10:41:06;;;;;;;10.27;5.18;;;;;;;;;;5037741;28;20171;-77
2022/01/04 10:43:32;;;;;;;13.57;5.22;;;;;;;;;;5035578;28;20582;-77
2022/01/04 10:46:00;;;;;;;10.73;4.88;;;;;;;;;;5042586;28;20041;-80
2022/01/04 10:48:29;;;;;;;9.55;5.18;;;;;;;;;;5041739;28;20656;-79
2022/01/04 10:50:57;;;;;;;10.05;4.57;;;;;;;;;;5034113;28;20033;-79
2022/01/04 10:53:32;;;;;;;10.70;5.05;;;;;;;;;;5023695;28;20041;-78
2022/01/04 10:56:02;;;;;;;7.75;3.70;;;;;;;;;;5036762;28;20037;-79
2022/01/04 10:58:39;;;;;;;8.80;4.55;;;;;;;;;;5023670;28;20632;-81
2022/01/04 11:01:09;;;;;;;8.13;4.28;;;;;;;;;;5042212;28;20120;-79
2022/01/04 11:03:57;;;;;;;8.02;4.20;;;;;;;;;;5043272;28;20076;-78
2022/01/04 11:06:35;;;;;;;8.77;4.53;;;;;;;;;;5021384;28;20044;-79
2022/01/04 11:09:02;;;;;;;9.95;4.35;;;;;;;;;;5041453;28;20110;-79
2022/01/04 11:11:28;;;;;;;8.55;3.92;;;;;;;;;;5031806;28;20041;-79
2022/01/04 11:13:54;;;;;;;7.90;4.10;;;;;;;;;;5020232;28;20036;-76
2022/01/04 11:16:22;;;;;;;7.70;4.03;;;;;;;;;;5037953;28;20041;-77
2022/01/04 11:18:50;;;;;;;7.03;3.78;;;;;;;;;;5037974;28;20671;-78
2022/01/04 11:21:20;;;;;;;7.95;3.30;;;;;;;;;;5038262;28;20043;-77
2022/01/04 11:23:47;;;;;;;7.47;3.70;;;;;;;;;;5039166;28;20042;-76
2022/01/04 11:26:13;;;;;;;7.90;4.45;;;;;;;;;;5036205;28;20033;-75
2022/01/04 11:28:42;;;;;;;12.65;5.18;;;;;;;;;;5039439;28;20033;-74
2022/01/04 11:31:32;;;;;;;7.00;3.80;;;;;;;;;;5042040;28;20032;-76
2022/01/04 11:34:06;;;;;;;13.70;4.32;;;;;;;;;;5035633;28;20120;-77
2022/01/04 11:36:38;;;;;;;9.85;3.90;;;;;;;;;;5023894;28;20068;-79
2022/01/04 11:39:31;;;;;;;8.25;4.22;;;;;;;;;;5043049;28;20039;-77
2022/01/04 11:42:10;;;;;;;8.75;3.90;;;;;;;;;;5003436;28;20050;-77
2022/01/04 11:44:45;;;;;;;6.93;3.85;;;;;;;;;;5028463;28;20056;-76
2022/01/04 11:47:15;;;;;;;11.10;4.22;;;;;;;;;;5036511;28;20545;-76
2022/01/04 11:50:24;;;;;;;6.60;3.60;;;;;;;;;;5040411;28;20040;-76
2022/01/04 11:52:49;;;;;;;6.75;3.25;;;;;;;;;;5053576;28;20575;-76
2022/01/04 11:55:27;;;;;;;6.43;3.25;;;;;;;;;;5055124;28;20043;-77
2022/01/04 11:57:56;;;;;;;9.20;3.67;;;;;;;;;;5055419;28;20036;-75
2022/01/04 12:00:37;;;;;;;6.85;3.25;;;;;;;;;;5052971;28;20040;-76
2022/01/04 12:03:13;;;;;;;7.95;3.55;;;;;;;;;;5053525;28;20040;-76
2022/01/04 12:05:57;;;;;;;5.97;3.60;;;;;;;;;;5057448;28;20052;-76
2022/01/04 12:08:33;;;;;;;8.10;4.63;;;;;;;;;;5058296;28;20071;-76
2022/01/04 12:10:58;;;;;;;7.47;4.32;;;;;;;;;;5056761;28;20059;-76
2022/01/04 12:13:25;;;;;;;9.60;4.70;;;;;;;;;;5048526;28;20410;-76
2022/01/04 12:16:05;;;;;;;6.70;3.95;;;;;;;;;;5047190;28;20116;-71
2022/01/04 12:18:34;;;;;;;9.45;4.22;;;;;;;;;;5046623;28;20510;-71
2022/01/04 12:21:08;;;;;;;11.32;5.32;;;;;;;;;;5055629;28;20041;-71
2022/01/04 12:23:35;;;;;;;7.70;4.35;;;;;;;;;;5060183;28;20047;-70
2022/01/04 12:26:06;;;;;;;8.93;4.68;;;;;;;;;;5060699;28;20031;-71
2022/01/04 12:28:35;;;;;;;10.25;5.50;;;;;;;;;;5056777;28;20107;-74
2022/01/04 12:31:12;;;;;;;7.22;4.60;;;;;;;;;;5056971;28;20052;-72
2022/01/04 12:33:40;;;;;;;7.85;4.80;;;;;;;;;;5040719;28;20040;-80
2022/01/04 12:36:05;;;;;;;10.40;4.55;;;;;;;;;;5051768;28;20044;-77
2022/01/04 12:38:32;;;;;;;10.00;5.32;;;;;;;;;;5053013;28;20388;-78
2022/01/04 12:40:58;;;;;;;10.77;5.13;;;;;;;;;;5058307;28;20039;-78
2022/01/04 12:43:24;;;;;;;10.48;5.15;;;;;;;;;;5038748;28;20029;-73
2022/01/04 12:46:07;;;;;;;9.85;5.60;;;;;;;;;;5056818;28;20052;-77
2022/01/04 12:48:46;;;;;;;;;;;;;;;;;;5059755;28;20036;-72
2022/01/04 12:51:35;;;;;;;10.75;5.38;;;;;;;;;;5028933;28;19964;-75
2022/01/04 12:54:03;;;;;;;10.10;5.03;;;;;;;;;;5022327;28;20541;-77
2022/01/04 12:56:29;;;;;;;11.77;5.65;;;;;;;;;;5026826;28;20592;-75
2022/01/04 12:58:56;;;;;;;12.88;5.97;;;;;;;;;;5037602;28;20025;-73
2022/01/04 13:01:23;;;;;;;13.32;5.85;;;;;;;;;;5020910;28;20037;-75
2022/01/04 13:03:49;;;;;;;12.43;6.57;;;;;;;;;;5021713;28;20423;-74
2022/01/04 13:06:15;;;;;;;14.07;6.93;;;;;;;;;;5022288;28;20042;-77
2022/01/04 13:08:41;;;;;;;16.65;7.13;;;;;;;;;;5017994;28;20565;-75
2022/01/04 13:11:08;;;;;;;15.18;6.55;;;;;;;;;;5013859;28;20034;-73
2022/01/04 13:13:34;;;;;;;18.23;7.78;;;;;;;;;;5035115;28;20501;-74
2022/01/04 13:16:26;;;;;;;14.68;6.45;;;;;;;;;;5027799;28;20065;-76
2022/01/04 13:18:52;;;;;;;12.70;6.43;;;;;;;;;;5019013;28;20045;-76
2022/01/04 13:21:25;;;;;;;12.65;6.35;;;;;;;;;;5007545;28;20045;-74
2022/01/04 13:23:51;;;;;;;13.52;6.40;;;;;;;;;;5018457;28;20033;-74
2022/01/04 13:26:24;;;;;;;15.82;6.30;;;;;;;;;;5020850;28;20041;-77
2022/01/04 13:28:57;;;;;;;15.57;6.30;;;;;;;;;;5038434;28;20126;-77
2022/01/04 13:31:23;;;;;;;10.90;6.25;;;;;;;;;;5020890;28;20049;-83
2022/01/04 13:33:49;;;;;;;11.05;6.38;;;;;;;;;;5039560;28;20431;-81
2022/01/04 13:36:14;;;;;;;12.60;5.90;;;;;;;;;;5022999;28;20402;-75
2022/01/04 13:38:40;;;;;;;10.57;5.60;;;;;;;;;;5036327;28;20033;-78
2022/01/04 13:41:07;;;;;;;15.45;5.90;;;;;;;;;;5031124;28;20033;-74
2022/01/04 13:43:40;;;;;;;12.88;5.00;;;;;;;;;;5037109;28;20029;-77
2022/01/04 13:46:12;;;;;;;8.27;4.18;;;;;;;;;;5042436;28;20044;-74
2022/01/04 13:48:40;;;;;;;11.82;5.18;;;;;;;;;;5022951;28;20048;-74
2022/01/04 13:51:06;;;;;;;8.93;4.55;;;;;;;;;;5058646;28;20051;-77
2022/01/04 13:53:42;;;;;;;8.82;4.97;;;;;;;;;;5058020;28;20059;-78
2022/01/04 13:56:10;;;;;;;9.88;5.20;;;;;;;;;;5051195;28;20063;-78
2022/01/04 13:58:45;;;;;;;8.15;4.60;;;;;;;;;;5055145;28;20028;-78
2022/01/04 14:01:11;;;;;;;8.10;4.50;;;;;;;;;;5056570;28;20036;-78
2022/01/04 14:03:36;;;;;;;9.48;5.00;;;;;;;;;;5056432;28;20048;-77
2022/01/04 14:06:02;;;;;;;11.40;4.82;;;;;;;;;;5057256;28;20046;-75
2022/01/04 14:08:48;;;;;;;9.95;4.90;;;;;;;;;;5052954;28;20040;-79
2022/01/04 14:11:22;;;;;;;12.45;4.53;;;;;;;;;;5061955;28;20090;-80
2022/01/04 14:13:48;;;;;;;10.85;4.95;;;;;;;;;;5055158;28;20181;-82
2022/01/04 14:16:15;;;;;;;10.23;5.00;;;;;;;;;;5058754;28;20051;-77
2022/01/04 14:19:05;;;;;;;10.13;4.65;;;;;;;;;;5046341;28;20182;-79
2022/01/04 14:21:30;;;;;;;12.43;5.55;;;;;;;;;;5042280;28;20033;-74
2022/01/04 14:23:56;;;;;;;10.23;4.93;;;;;;;;;;5042661;28;20044;-73
2022/01/04 14:26:22;;;;;;;8.10;4.40;;;;;;;;;;5040718;28;20538;-76
2022/01/04 14:28:47;;;;;;;11.63;4.53;;;;;;;;;;5035281;28;20025;-75
2022/01/04 14:31:17;;;;;;;8.57;4.40;;;;;;;;;;5034786;28;20045;-75
2022/01/04 14:33:42;;;;;;;10.95;4.75;;;;;;;;;;5055971;28;20147;-74
2022/01/04 14:36:07;;;;;;;12.52;5.30;;;;;;;;;;5054776;28;20590;-73
2022/01/04 14:38:33;;;;;;;8.43;4.57;;;;;;;;;;5045464;28;20041;-76
2022/01/04 14:40:58;;;;;;;8.25;3.63;;;;;;;;;;5046124;28;20036;-74
2022/01/04 14:43:25;;;;;;;10.30;3.92;;;;;;;;;;5046336;28;20487;-75
2022/01/04 14:45:50;;;;;;;8.10;3.40;;;;;;;;;;5055722;28;20037;-76
2022/01/04 14:48:17;;;;;;;7.75;3.53;;;;;;;;;;5053244;28;20037;-75
2022/01/04 14:50:43;;;;;;;9.48;3.53;;;;;;;;;;5029779;28;20045;-77
2022/01/04 14:53:09;;;;;;;5.63;2.80;;;;;;;;;;5007189;28;20022;-75
2022/01/04 14:55:34;;;;;;;5.93;2.85;;;;;;;;;;5011168;28;20033;-75